createdAt,value
2022-08-05T00:02:41.526Z,3.60
2022-08-05T00:08:00.985Z,3.80
2022-08-05T00:12:56.150Z,3.50
2022-08-05T00:17:41.386Z,3.20
2022-08-05T00:22:40.250Z,3.50
2022-08-05T00:27:42.889Z,4.00
2022-08-05T00:32:40.446Z,3.50
2022-08-05T00:37:52.861Z,4.70
2022-08-05T00:42:41.087Z,4.60
2022-08-05T00:47:56.870Z,4.70
2022-08-05T00:52:40.983Z,4.50
2022-08-05T00:57:58.388Z,4.90
2022-08-05T01:02:40.913Z,4.90
2022-08-05T01:08:40.929Z,5.10
2022-08-05T01:12:40.761Z,4.60
2022-08-05T01:17:44.200Z,4.80
2022-08-05T01:22:39.690Z,5.30
2022-08-05T01:27:50.710Z,5.10
2022-08-05T01:32:40.461Z,5.20
2022-08-05T01:37:44.187Z,5.10
2022-08-05T01:42:39.345Z,5.40
2022-08-05T01:47:43.110Z,5.10
2022-08-05T01:52:39.252Z,4.60
2022-08-05T01:58:10.896Z,4.60
2022-08-05T02:02:51.088Z,4.60
2022-08-05T02:07:40.081Z,5.30
2022-08-05T02:12:39.019Z,5.50
2022-08-05T02:18:30.855Z,5.70
2022-08-05T02:22:39.927Z,5.10
2022-08-05T02:27:59.204Z,4.70
2022-08-05T02:32:39.801Z,5.40
2022-08-05T02:37:38.902Z,5.40
2022-08-05T02:42:38.705Z,5.60
2022-08-05T02:48:07.683Z,5.60
2022-08-05T02:52:39.585Z,7.20
2022-08-05T02:58:11.667Z,6.00
2022-08-05T03:02:39.470Z,7.40
2022-08-05T03:07:59.322Z,6.80
2022-08-05T03:12:39.352Z,7.40
2022-08-05T03:17:41.678Z,7.00
2022-08-05T03:22:38.279Z,8.20
2022-08-05T03:27:59.026Z,10.70
2022-08-05T03:32:39.192Z,14.50
2022-08-05T03:37:46.683Z,11.80
2022-08-05T03:42:51.570Z,11.50
2022-08-05T03:47:41.418Z,11.70
2022-08-05T03:55:00.117Z,11.90
2022-08-05T03:57:42.056Z,11.50
2022-08-05T04:02:45.265Z,13.60
2022-08-05T04:07:53.187Z,10.60
2022-08-05T04:13:11.060Z,13.10
2022-08-05T04:18:20.608Z,13.10
2022-08-05T04:23:12.453Z,11.60
2022-08-05T04:28:11.253Z,13.60
2022-08-05T04:33:10.850Z,11.50
2022-08-05T04:38:10.934Z,15.60
2022-08-05T04:43:16.317Z,14.60
2022-08-05T04:48:18.647Z,14.10
2022-08-05T04:53:11.725Z,15.50
2022-08-05T04:58:12.311Z,16.80
2022-08-05T05:03:10.580Z,19.20
2022-08-05T05:08:14.489Z,19.40
2022-08-05T05:13:11.566Z,21.60
2022-08-05T05:18:10.508Z,16.90
2022-08-05T05:23:19.695Z,16.50
2022-08-05T05:28:11.257Z,18.70
2022-08-05T05:33:17.095Z,21.80
2022-08-05T05:38:13.687Z,20.70
2022-08-05T05:43:10.202Z,26.10
2022-08-05T05:48:10.100Z,27.80
2022-08-05T05:53:21.202Z,28.60
2022-08-05T05:58:11.015Z,30.60
2022-08-05T06:03:28.367Z,32.80
2022-08-05T06:08:11.024Z,32.80
2022-08-05T06:13:09.938Z,33.70
2022-08-05T06:18:09.830Z,35.60
2022-08-05T06:23:09.650Z,36.10
2022-08-05T06:28:12.041Z,38.50
2022-08-05T06:33:10.754Z,39.80
2022-08-05T06:38:11.266Z,30.50
2022-08-05T06:43:58.457Z,29.20
2022-08-05T06:48:35.940Z,20.30
2022-08-05T06:53:19.483Z,26.30
2022-08-05T06:58:20.086Z,34.40
2022-08-05T07:03:11.238Z,35.00
2022-08-05T07:08:10.923Z,38.80
2022-08-05T07:13:09.230Z,39.00
2022-08-05T07:18:11.549Z,44.80
2022-08-05T07:23:10.086Z,46.10
2022-08-05T07:28:11.988Z,45.60
2022-08-05T07:33:15.559Z,38.30
2022-08-05T07:38:12.211Z,39.90
2022-08-05T07:43:20.345Z,38.50
2022-08-05T07:48:09.755Z,33.30
2022-08-05T07:53:08.647Z,28.90
2022-08-05T07:58:09.072Z,29.40
2022-08-05T08:03:15.293Z,27.30
2022-08-05T08:08:12.488Z,28.20
2022-08-05T08:13:08.451Z,26.40
2022-08-05T08:18:14.263Z,25.30
2022-08-05T08:24:00.367Z,21.60
2022-08-05T08:28:18.447Z,22.80
2022-08-05T08:33:09.338Z,20.30
2022-08-05T08:38:08.236Z,18.40
2022-08-05T08:45:17.036Z,19.50
2022-08-05T08:48:22.533Z,13.60
2022-08-05T08:53:12.364Z,14.90
2022-08-05T08:58:08.705Z,11.00
2022-08-05T09:03:07.985Z,10.30
2022-08-05T09:08:07.884Z,11.70
2022-08-05T09:13:08.110Z,9.30
2022-08-05T09:18:08.679Z,10.40
2022-08-05T09:23:09.474Z,9.20
2022-08-05T09:28:07.626Z,9.80
2022-08-05T09:33:07.598Z,8.50
2022-08-05T09:38:29.526Z,9.00
2022-08-05T09:43:08.521Z,8.30
2022-08-05T09:48:07.379Z,7.90
2022-08-05T09:53:08.798Z,8.60
2022-08-05T09:58:07.287Z,8.90
2022-08-05T10:03:07.267Z,9.00
2022-08-05T10:08:34.839Z,7.40
2022-08-05T10:13:09.745Z,8.30
2022-08-05T10:18:07.170Z,7.30
2022-08-05T10:23:08.957Z,9.10
2022-08-05T10:28:13.551Z,8.00
2022-08-05T10:33:09.384Z,9.00
2022-08-05T10:38:08.258Z,7.80
2022-08-05T10:43:06.870Z,7.80
2022-08-05T10:48:31.924Z,7.20
2022-08-05T10:53:07.736Z,6.20
2022-08-05T10:58:06.693Z,6.30
2022-08-05T11:03:24.418Z,5.50
2022-08-05T11:08:27.671Z,5.40
2022-08-05T11:13:07.599Z,3.60
2022-08-05T11:18:06.481Z,3.50
2022-08-05T11:23:10.426Z,4.30
2022-08-05T11:28:06.314Z,4.30
2022-08-05T11:33:06.615Z,3.50
2022-08-05T11:38:30.134Z,3.70
2022-08-05T11:43:07.254Z,3.30
2022-08-05T11:48:15.053Z,3.40
2022-08-05T11:53:06.429Z,3.60
2022-08-05T11:58:09.998Z,3.10
2022-08-05T12:03:07.068Z,3.00
2022-08-05T12:08:09.629Z,3.20
2022-08-05T12:13:16.711Z,2.30
2022-08-05T12:18:11.941Z,2.60
2022-08-05T12:23:06.888Z,3.40
2022-08-05T12:28:06.989Z,2.60
2022-08-05T12:33:07.196Z,2.90
2022-08-05T12:38:06.640Z,3.00
2022-08-05T12:43:05.629Z,2.80
2022-08-05T12:48:27.441Z,2.80
2022-08-05T12:53:06.599Z,2.80
2022-08-05T12:58:49.782Z,3.00
2022-08-05T13:03:06.813Z,3.10
2022-08-05T13:08:05.496Z,3.00
2022-08-05T13:13:05.348Z,3.80
2022-08-05T13:18:05.290Z,3.40
2022-08-05T13:23:07.252Z,3.40
2022-08-05T13:28:06.050Z,3.00
2022-08-05T13:33:05.139Z,2.80
2022-08-05T13:38:05.948Z,2.70
2022-08-05T13:43:05.092Z,3.40
2022-08-05T13:48:08.497Z,3.50
2022-08-05T13:53:08.874Z,2.60
2022-08-05T13:58:05.777Z,2.30
2022-08-05T14:03:06.711Z,2.60
2022-08-05T14:08:11.278Z,2.00
2022-08-05T14:13:05.757Z,1.90
2022-08-05T14:18:04.748Z,2.10
2022-08-05T14:23:04.880Z,1.90
2022-08-05T14:28:06.235Z,2.00
2022-08-05T14:33:04.579Z,1.50
2022-08-05T14:38:04.553Z,1.80
2022-08-05T14:43:04.370Z,1.60
2022-08-05T14:48:06.067Z,1.40
2022-08-05T14:53:05.626Z,1.70
2022-08-05T14:58:10.827Z,1.60
2022-08-05T15:03:07.183Z,1.40
2022-08-05T15:08:17.850Z,1.60
2022-08-05T15:13:05.207Z,1.60
2022-08-05T15:18:05.815Z,1.30
2022-08-05T15:23:04.969Z,1.10
2022-08-05T15:28:03.879Z,1.10
2022-08-05T15:33:03.820Z,1.60
2022-08-05T15:38:32.299Z,1.00
2022-08-05T15:43:11.188Z,0.90
2022-08-05T15:48:04.564Z,1.20
2022-08-05T15:53:05.338Z,1.10
2022-08-05T15:58:03.652Z,0.70
2022-08-05T16:03:03.510Z,0.90
2022-08-05T16:08:03.388Z,0.70
2022-08-05T16:13:03.307Z,0.80
2022-08-05T16:18:04.364Z,0.80
2022-08-05T16:23:04.213Z,0.70
2022-08-05T16:28:05.469Z,0.80
2022-08-05T16:33:03.087Z,1.10
2022-08-05T16:38:24.298Z,1.00
2022-08-05T16:43:04.016Z,4.00
2022-08-05T16:48:03.239Z,0.80
2022-08-05T16:53:12.454Z,0.80
2022-08-05T16:58:08.553Z,2.00
2022-08-05T17:03:03.812Z,1.10
2022-08-05T17:08:03.743Z,10.20
2022-08-05T17:13:02.741Z,0.80
2022-08-05T17:18:02.703Z,0.80
2022-08-05T17:23:02.796Z,1.80
2022-08-05T17:28:02.499Z,0.90
2022-08-05T17:33:02.446Z,1.10
2022-08-05T17:38:04.844Z,1.50
2022-08-05T17:43:02.323Z,5.50
2022-08-05T17:48:03.329Z,1.30
2022-08-05T17:53:02.272Z,1.00
2022-08-05T17:58:02.237Z,1.00
2022-08-05T18:03:02.219Z,1.60
2022-08-05T18:08:02.196Z,1.10
2022-08-05T18:13:07.631Z,0.90
2022-08-05T18:18:07.807Z,0.90
2022-08-05T18:23:09.444Z,1.00
2022-08-05T18:28:05.402Z,1.20
2022-08-05T18:33:02.922Z,1.00
2022-08-05T18:38:01.859Z,1.40
2022-08-05T18:43:01.850Z,0.90
2022-08-05T18:48:01.758Z,0.90
2022-08-05T18:53:02.727Z,1.70
2022-08-05T18:58:04.729Z,0.90
2022-08-05T19:03:03.610Z,0.90
2022-08-05T19:08:03.600Z,0.80
2022-08-05T19:13:02.350Z,1.20
2022-08-05T19:18:10.023Z,0.90
2022-08-05T19:23:02.362Z,1.10
2022-08-05T19:28:02.253Z,1.00
2022-08-05T19:33:01.493Z,0.80
2022-08-05T19:38:06.906Z,1.00
2022-08-05T19:43:05.287Z,1.10
2022-08-05T19:48:02.039Z,0.80
2022-08-05T19:53:09.261Z,1.20
2022-08-05T19:58:19.658Z,1.10
2022-08-05T20:03:01.820Z,1.10
2022-08-05T20:08:01.894Z,0.90
2022-08-05T20:13:00.773Z,1.00
2022-08-05T20:18:01.794Z,1.30
2022-08-05T20:23:00.757Z,1.10
2022-08-05T20:28:00.700Z,0.90
2022-08-05T20:33:00.660Z,1.10
2022-08-05T20:38:07.828Z,1.00
2022-08-05T20:43:01.446Z,0.90
2022-08-05T20:48:00.380Z,1.10
2022-08-05T20:53:00.290Z,1.00
2022-08-05T20:58:00.426Z,1.10
2022-08-05T21:03:01.493Z,1.10
2022-08-05T21:08:00.193Z,1.40
2022-08-05T21:13:10.132Z,1.30
2022-08-05T21:18:01.020Z,0.90
2022-08-05T21:22:59.941Z,1.40
2022-08-05T21:27:59.953Z,1.30
2022-08-05T21:32:59.864Z,1.00
2022-08-05T21:37:59.876Z,1.20
2022-08-05T21:42:59.754Z,1.70
2022-08-05T21:47:59.704Z,1.50
2022-08-05T21:53:04.846Z,1.20
2022-08-05T21:58:00.610Z,1.30
2022-08-05T22:02:59.624Z,1.20
2022-08-05T22:08:02.457Z,1.30
2022-08-05T22:14:06.227Z,1.30
2022-08-05T22:19:15.101Z,1.40
2022-08-05T22:24:12.994Z,1.40
2022-08-05T22:29:10.727Z,1.20
2022-08-05T22:34:10.580Z,1.30
2022-08-05T22:39:11.532Z,1.60
2022-08-05T22:44:12.079Z,1.90
2022-08-05T22:49:12.362Z,1.30
2022-08-05T22:54:11.328Z,1.30
2022-08-05T22:59:45.131Z,1.30
2022-08-05T23:04:11.220Z,1.30
2022-08-05T23:09:24.678Z,1.90
2022-08-05T23:14:11.143Z,1.30
2022-08-05T23:19:10.078Z,2.20
2022-08-05T23:24:11.606Z,2.10
2022-08-05T23:29:10.010Z,1.90
2022-08-05T23:34:10.880Z,1.60
2022-08-05T23:39:09.897Z,2.00
2022-08-05T23:44:10.792Z,1.90
2022-08-05T23:49:16.832Z,1.90
2022-08-05T23:54:12.684Z,2.00
2022-08-05T23:59:09.582Z,1.60
